Time;durP1;ratioP1;P1;durP2;ratioP2;P2;SDS_P1;SDS_P2;PMS_P1;PMS_P2;Temp;Humidity;BMP_temperature;BMP_pressure;BME280_temperature;BME280_humidity;BME280_pressure;Samples;Min_cycle;Max_cycle;Signal;HPM_P1;HPM_P2
2023/12/27 00:01:09;;;;;;;3.57;2.00;;;14.70;99.90;;;;;;5066422;28;20183;-90
2023/12/27 00:03:37;;;;;;;2.87;1.80;;;14.70;99.90;;;;;;5079750;28;20464;-90
2023/12/27 00:06:06;;;;;;;5.53;2.23;;;14.70;99.90;;;;;;5062665;28;20233;-90
2023/12/27 00:08:37;;;;;;;2.63;2.00;;;14.70;99.90;;;;;;5068215;28;20201;-90
2023/12/27 00:11:03;;;;;;;4.33;2.03;;;14.80;99.90;;;;;;5118890;27;20184;-90
2023/12/27 00:13:32;;;;;;;4.23;2.20;;;14.70;99.90;;;;;;5076247;28;20166;-89
2023/12/27 00:16:01;;;;;;;3.03;2.00;;;14.70;99.90;;;;;;5096157;28;20271;-90
2023/12/27 00:18:27;;;;;;;2.70;1.97;;;14.70;99.90;;;;;;5081534;28;20224;-90
2023/12/27 00:20:57;;;;;;;4.27;1.90;;;14.70;99.90;;;;;;5100459;28;20208;-90
2023/12/27 00:23:29;;;;;;;2.40;1.77;;;14.70;99.90;;;;;;5090172;28;20175;-90
2023/12/27 00:25:56;;;;;;;2.73;1.90;;;14.70;99.90;;;;;;5100392;28;20178;-90
2023/12/27 00:28:28;;;;;;;4.10;2.13;;;14.70;99.90;;;;;;5074210;28;20601;-90
2023/12/27 00:30:56;;;;;;;3.37;1.63;;;14.80;99.90;;;;;;5098787;28;20202;-90
2023/12/27 00:33:24;;;;;;;3.30;1.83;;;14.70;99.90;;;;;;5057120;28;20246;-90
2023/12/27 00:35:50;;;;;;;2.87;1.83;;;14.70;99.90;;;;;;5117188;28;20173;-90
2023/12/27 00:38:19;;;;;;;2.50;1.93;;;14.70;99.90;;;;;;5076569;28;20557;-90
2023/12/27 00:40:48;;;;;;;2.77;1.80;;;14.70;99.90;;;;;;5095966;28;20190;-90
2023/12/27 00:43:13;;;;;;;3.23;1.77;;;14.70;99.90;;;;;;5080841;28;20174;-90
2023/12/27 00:45:40;;;;;;;2.80;2.00;;;14.70;99.90;;;;;;5093899;28;20187;-90
2023/12/27 00:48:09;;;;;;;2.60;1.90;;;14.70;99.90;;;;;;5093232;28;20188;-90
2023/12/27 00:50:38;;;;;;;3.80;2.13;;;14.70;99.90;;;;;;5071505;28;20472;-90
2023/12/27 00:53:03;;;;;;;2.07;1.80;;;14.70;99.90;;;;;;5069268;28;20477;-90
2023/12/27 00:55:31;;;;;;;3.70;2.13;;;14.70;99.90;;;;;;5074359;28;20214;-90
2023/12/27 00:57:57;;;;;;;2.93;1.90;;;14.70;99.90;;;;;;5064084;28;20168;-90
2023/12/27 01:00:25;;;;;;;2.43;1.80;;;14.70;99.90;;;;;;5077097;28;20187;-90
2023/12/27 01:02:54;;;;;;;2.57;1.93;;;14.70;99.90;;;;;;5061893;28;20265;-90
2023/12/27 01:05:20;;;;;;;4.27;2.00;;;14.70;99.90;;;;;;5081888;28;20179;-90
2023/12/27 01:07:49;;;;;;;4.03;2.10;;;14.70;99.90;;;;;;5061412;28;20575;-90
2023/12/27 01:10:15;;;;;;;2.93;2.00;;;14.70;99.90;;;;;;5081932;28;20169;-91
2023/12/27 01:12:46;;;;;;;2.60;1.80;;;14.70;99.90;;;;;;5054339;28;20433;-90
2023/12/27 01:15:18;;;;;;;3.40;2.07;;;14.70;99.90;;;;;;5082128;28;20165;-90
2023/12/27 01:17:47;;;;;;;3.47;1.83;;;14.70;99.90;;;;;;5056710;28;20287;-90
2023/12/27 01:20:13;;;;;;;2.83;1.93;;;14.70;99.90;;;;;;5064940;28;20216;-90
2023/12/27 01:22:41;;;;;;;2.50;1.87;;;14.70;99.90;;;;;;5097092;28;20189;-90
2023/12/27 01:25:16;;;;;;;2.43;1.97;;;14.70;99.90;;;;;;5070602;28;20226;-90
2023/12/27 01:27:48;;;;;;;2.47;1.90;;;14.70;99.90;;;;;;5098580;28;20165;-90
2023/12/27 01:30:17;;;;;;;2.17;1.90;;;14.60;99.90;;;;;;5072435;28;20213;-90
2023/12/27 01:32:44;;;;;;;2.50;1.83;;;14.60;99.90;;;;;;5098921;28;20170;-90
2023/12/27 01:35:13;;;;;;;3.87;1.90;;;14.70;99.90;;;;;;5076221;28;20541;-90
2023/12/27 01:37:39;;;;;;;3.23;1.80;;;14.60;99.90;;;;;;5096082;28;20589;-90
2023/12/27 01:40:06;;;;;;;2.60;1.90;;;14.70;99.90;;;;;;5082642;28;20176;-90
2023/12/27 01:42:34;;;;;;;3.20;1.80;;;14.70;99.90;;;;;;5090970;28;20194;-90
2023/12/27 01:45:00;;;;;;;2.13;1.60;;;14.60;99.90;;;;;;5085279;28;20164;-90
2023/12/27 01:47:33;;;;;;;2.80;1.80;;;14.60;99.90;;;;;;5087406;28;20470;-90
2023/12/27 01:49:59;;;;;;;1.90;1.63;;;14.60;99.90;;;;;;5087906;28;20186;-90
2023/12/27 01:52:25;;;;;;;2.60;1.83;;;14.60;99.90;;;;;;5081378;28;20168;-90
2023/12/27 01:54:54;;;;;;;2.73;1.97;;;14.60;99.90;;;;;;5086877;28;20429;-90
2023/12/27 01:57:20;;;;;;;2.60;1.73;;;14.60;99.90;;;;;;5075801;28;20214;-90
2023/12/27 01:59:55;;;;;;;3.60;2.20;;;14.60;99.90;;;;;;5057930;28;20206;-90
2023/12/27 02:02:28;;;;;;;3.33;2.07;;;14.60;99.90;;;;;;5082653;28;20326;-90
2023/12/27 02:04:57;;;;;;;2.30;1.80;;;14.60;99.90;;;;;;5073456;28;20181;-90
2023/12/27 02:07:22;;;;;;;2.27;1.90;;;14.60;99.90;;;;;;5082739;28;20295;-90
2023/12/27 02:09:51;;;;;;;2.20;1.80;;;14.60;99.90;;;;;;5090132;28;20202;-90
2023/12/27 02:12:25;;;;;;;2.97;1.70;;;14.60;99.90;;;;;;5071449;28;20234;-90
2023/12/27 02:14:54;;;;;;;2.57;1.70;;;14.60;99.90;;;;;;5093584;28;20437;-90
2023/12/27 02:17:25;;;;;;;2.47;1.70;;;14.60;99.90;;;;;;5072404;28;20165;-90
2023/12/27 02:19:52;;;;;;;2.20;1.70;;;14.60;99.90;;;;;;5095113;28;20184;-90
2023/12/27 02:22:25;;;;;;;2.83;2.03;;;14.60;99.90;;;;;;5070764;28;20189;-90
2023/12/27 02:24:55;;;;;;;2.70;1.67;;;14.60;99.90;;;;;;5097350;28;20175;-90
2023/12/27 02:32:37;;;;;;;2.33;1.80;;;14.60;99.90;;;;;;5070783;28;20230;-4
2023/12/27 02:35:35;;;;;;;3.10;2.13;;;14.50;99.90;;;;;;5072003;28;20172;-4
2023/12/27 02:38:21;;;;;;;2.10;1.87;;;14.50;99.90;;;;;;5070658;28;20184;-4
2023/12/27 02:40:50;;;;;;;2.60;1.70;;;14.50;99.90;;;;;;5071908;28;20172;-4
2023/12/27 02:43:37;;;;;;;2.33;1.70;;;14.50;99.90;;;;;;5072032;28;20168;-4
2023/12/27 02:46:20;;;;;;;2.13;1.90;;;14.60;99.90;;;;;;5072718;28;20180;-4
2023/12/27 02:48:46;;;;;;;2.23;1.80;;;14.50;99.90;;;;;;5054686;28;20203;-4
2023/12/27 02:51:34;;;;;;;3.37;1.93;;;14.60;99.90;;;;;;5071609;28;20271;-4
2023/12/27 02:54:24;;;;;;;2.00;1.70;;;14.50;99.90;;;;;;5072984;28;20168;-4
2023/12/27 02:57:05;;;;;;;2.60;1.70;;;14.50;99.90;;;;;;5074563;28;20307;-4
2023/12/27 02:59:33;;;;;;;2.33;1.80;;;14.50;99.90;;;;;;5056641;28;20561;-4
2023/12/27 03:05:28;;;;;;;4.07;1.80;;;14.50;99.90;;;;;;5011145;28;20193;-4
2023/12/27 03:14:15;;;;;;;2.00;1.60;;;14.50;99.90;;;;;;4935160;29;20279;-4
2023/12/27 03:16:56;;;;;;;3.30;1.90;;;14.50;99.90;;;;;;5011497;28;20278;-4
2023/12/27 03:20:03;;;;;;;2.07;1.67;;;14.50;99.90;;;;;;4993530;28;20747;-4
2023/12/27 03:22:32;;;;;;;2.30;1.53;;;14.50;99.90;;;;;;5010830;28;20498;-4
2023/12/27 03:25:30;;;;;;;2.50;1.70;;;14.50;99.90;;;;;;5013791;28;20181;-4
2023/12/27 03:28:27;;;;;;;2.83;1.90;;;14.50;99.90;;;;;;4920285;29;20215;-5
2023/12/27 03:31:03;;;;;;;1.77;1.50;;;14.50;99.90;;;;;;4999430;28;20185;-5
2023/12/27 03:34:06;;;;;;;3.40;2.07;;;14.50;99.90;;;;;;4997839;28;20602;-5
2023/12/27 03:40:04;;;;;;;1.63;1.53;;;14.50;99.90;;;;;;5080444;28;20198;-4
2023/12/27 03:43:20;;;;;;;2.03;1.70;;;14.50;99.90;;;;;;5080362;28;20171;-4
2023/12/27 03:46:31;;;;;;;2.43;1.70;;;14.50;99.90;;;;;;5081097;28;20169;-4
2023/12/27 03:52:25;;;;;;;1.80;1.50;;;14.50;99.90;;;;;;5035344;28;20844;-4
2023/12/27 03:54:57;;;;;;;1.70;1.60;;;14.50;99.90;;;;;;5038819;28;20239;-4
2023/12/27 03:57:47;;;;;;;2.23;1.50;;;14.50;99.90;;;;;;5022651;28;20173;-5
2023/12/27 04:03:10;;;;;;;2.53;1.87;;;14.50;99.90;;;;;;5038861;28;20211;-7
2023/12/27 04:05:54;;;;;;;2.53;1.97;;;14.50;99.90;;;;;;5039476;28;20548;-6
2023/12/27 04:08:33;;;;;;;3.00;1.83;;;14.50;99.90;;;;;;5038689;28;20230;-7
2023/12/27 04:11:02;;;;;;;1.90;1.63;;;14.50;99.90;;;;;;5036742;28;20180;-6
2023/12/27 04:20:13;;;;;;;2.30;1.70;;;14.50;99.90;;;;;;5008652;28;20192;-6
2023/12/27 04:22:48;;;;;;;2.23;1.77;;;14.40;99.90;;;;;;5002799;28;20535;-7
2023/12/27 04:28:23;;;;;;;2.50;1.70;;;14.40;99.90;;;;;;5013239;28;20610;-6
2023/12/27 04:31:28;;;;;;;2.00;1.70;;;14.40;99.90;;;;;;5002010;28;20185;-7
2023/12/27 04:33:54;;;;;;;3.00;1.70;;;14.40;99.90;;;;;;5018980;28;20213;-6
2023/12/27 04:39:14;;;;;;;1.90;1.70;;;14.40;99.90;;;;;;5018540;28;20208;-8
2023/12/27 04:41:43;;;;;;;2.57;1.57;;;14.40;99.90;;;;;;5001980;28;20191;-6
2023/12/27 04:44:31;;;;;;;1.90;1.60;;;14.40;99.90;;;;;;5018406;28;20273;-6
2023/12/27 04:46:59;;;;;;;2.67;1.77;;;14.40;99.90;;;;;;5036106;28;20188;-6
2023/12/27 04:49:31;;;;;;;2.53;1.83;;;14.40;99.90;;;;;;5062392;28;20206;-7
2023/12/27 04:55:27;;;;;;;2.23;1.57;;;14.50;99.90;;;;;;5079683;28;20500;-7
2023/12/27 05:00:59;;;;;;;2.73;1.50;;;14.60;99.90;;;;;;5079522;28;20563;-7
2023/12/27 05:03:25;;;;;;;2.43;1.77;;;14.60;99.90;;;;;;5061607;28;20175;-6
2023/12/27 05:05:53;;;;;;;1.70;1.43;;;14.70;99.90;;;;;;5079349;28;20175;-7
2023/12/27 05:08:59;;;;;;;1.70;1.33;;;14.80;99.90;;;;;;5078655;28;20201;-6
2023/12/27 05:11:30;;;;;;;2.30;1.60;;;14.80;99.90;;;;;;4991399;28;20211;-7
2023/12/27 05:14:23;;;;;;;1.97;1.60;;;14.80;99.90;;;;;;5078934;28;20167;-7
2023/12/27 05:17:04;;;;;;;1.83;1.70;;;14.70;99.90;;;;;;5078805;28;20166;-7
2023/12/27 05:19:58;;;;;;;2.13;1.50;;;14.70;99.90;;;;;;5061544;28;20167;-7
2023/12/27 05:22:33;;;;;;;2.20;1.53;;;14.70;99.90;;;;;;5060529;28;20182;-6
2023/12/27 05:25:01;;;;;;;1.80;1.50;;;14.70;99.90;;;;;;5050214;28;20191;-7
2023/12/27 05:27:33;;;;;;;2.37;1.50;;;14.60;99.90;;;;;;5061637;28;20190;-7
2023/12/27 05:30:45;;;;;;;1.83;1.40;;;14.60;99.90;;;;;;5055972;28;20300;-7
2023/12/27 05:33:38;;;;;;;1.90;1.60;;;14.60;99.90;;;;;;5056566;28;20175;-7
2023/12/27 05:36:19;;;;;;;2.37;1.63;;;14.60;99.90;;;;;;5040238;28;20186;-6
2023/12/27 05:38:50;;;;;;;1.93;1.60;;;14.60;99.90;;;;;;5055663;28;20183;-7
2023/12/27 05:41:40;;;;;;;2.20;1.60;;;14.60;99.90;;;;;;5057282;28;20194;-7
2023/12/27 05:44:18;;;;;;;2.10;1.50;;;14.60;99.90;;;;;;5057071;28;20595;-6
2023/12/27 05:47:09;;;;;;;2.23;1.70;;;14.60;99.90;;;;;;5056339;28;20317;-7
2023/12/27 05:49:34;;;;;;;2.23;1.40;;;14.50;99.90;;;;;;5056276;28;20216;-6
2023/12/27 05:52:30;;;;;;;2.00;1.60;;;14.50;99.90;;;;;;5056608;28;20160;-7
2023/12/27 05:55:23;;;;;;;3.23;1.63;;;14.50;99.90;;;;;;5040504;28;20288;-7
2023/12/27 05:58:07;;;;;;;2.43;1.40;;;14.50;99.90;;;;;;5056816;28;20178;-7
2023/12/27 06:00:37;;;;;;;2.27;1.67;;;14.50;99.90;;;;;;5052330;22;20223;-6
2023/12/27 06:03:10;;;;;;;1.90;1.50;;;14.50;99.90;;;;;;5061467;28;20202;-7
2023/12/27 06:05:38;;;;;;;2.33;1.53;;;14.50;99.90;;;;;;5075309;28;20179;-6
2023/12/27 06:08:10;;;;;;;1.70;1.30;;;14.40;99.90;;;;;;5074529;28;20645;-7
2023/12/27 06:10:45;;;;;;;1.73;1.50;;;14.50;99.90;;;;;;5055122;28;20284;-7
2023/12/27 06:13:38;;;;;;;2.00;1.37;;;14.50;99.90;;;;;;5054628;28;20194;-6
2023/12/27 06:16:32;;;;;;;1.87;1.50;;;14.50;99.90;;;;;;4994426;28;20181;-7
2023/12/27 06:19:02;;;;;;;1.97;1.50;;;14.60;99.90;;;;;;5055162;28;20171;-7
2023/12/27 06:22:03;;;;;;;2.00;1.70;;;14.60;99.90;;;;;;5055447;28;20269;-6
2023/12/27 06:27:48;;;;;;;1.50;1.40;;;14.70;99.90;;;;;;5072006;28;20694;-6
2023/12/27 06:30:23;;;;;;;1.70;1.40;;;14.70;99.90;;;;;;5053225;28;20189;-8
2023/12/27 06:33:01;;;;;;;2.20;1.43;;;14.70;99.90;;;;;;5055065;28;20484;-6
2023/12/27 06:35:27;;;;;;;1.60;1.20;;;14.70;99.90;;;;;;5053872;28;20502;-7
2023/12/27 06:38:30;;;;;;;1.93;1.43;;;14.70;99.90;;;;;;5054808;28;20627;-7
2023/12/27 06:41:04;;;;;;;1.60;1.37;;;14.70;99.90;;;;;;5071905;28;20228;-6
2023/12/27 06:43:59;;;;;;;1.63;1.50;;;14.70;99.90;;;;;;5072977;28;20170;-6
2023/12/27 06:46:34;;;;;;;1.90;1.50;;;14.70;99.90;;;;;;4995289;28;20242;-6
2023/12/27 06:49:08;;;;;;;1.67;1.37;;;14.60;99.90;;;;;;5010676;28;20315;-6
2023/12/27 06:52:21;;;;;;;1.43;1.30;;;14.60;99.90;;;;;;5009208;28;20289;-7
2023/12/27 06:55:08;;;;;;;2.00;1.57;;;14.60;99.90;;;;;;4934671;29;20282;-6
2023/12/27 06:57:40;;;;;;;1.90;1.43;;;14.60;99.90;;;;;;4980815;28;20208;-7
2023/12/27 07:02:34;;;;;;;2.40;1.40;;;14.60;99.90;;;;;;5054080;22;20278;-7
2023/12/27 07:05:05;;;;;;;1.57;1.23;;;14.60;99.90;;;;;;5052056;28;20172;-7
2023/12/27 07:11:00;;;;;;;1.67;1.30;;;14.60;99.90;;;;;;5051560;28;20191;-8
2023/12/27 07:13:38;;;;;;;1.30;1.20;;;14.50;99.90;;;;;;5049898;28;20261;-7
2023/12/27 07:16:04;;;;;;;1.53;1.30;;;14.50;99.90;;;;;;5030370;28;20425;-7
2023/12/27 07:18:52;;;;;;;1.87;1.20;;;14.50;99.90;;;;;;5048698;28;20267;-7
2023/12/27 07:21:36;;;;;;;1.57;1.47;;;14.50;99.90;;;;;;5048258;28;20499;-7
2023/12/27 07:24:08;;;;;;;1.70;1.30;;;14.50;99.90;;;;;;5030629;28;20176;-8
2023/12/27 07:26:43;;;;;;;1.27;1.17;;;14.40;99.90;;;;;;5049819;28;20178;-7
2023/12/27 07:29:20;;;;;;;1.53;1.40;;;14.40;99.90;;;;;;5030692;28;20371;-7
2023/12/27 07:31:49;;;;;;;2.30;1.30;;;14.50;99.90;;;;;;5048066;28;20278;-7
2023/12/27 07:34:46;;;;;;;2.07;1.50;;;14.50;99.90;;;;;;5031383;28;20199;-7
2023/12/27 07:37:29;;;;;;;2.07;1.47;;;14.60;99.90;;;;;;5048775;28;20173;-8
2023/12/27 07:39:58;;;;;;;1.77;1.40;;;14.60;99.90;;;;;;5031216;28;20176;-8
2023/12/27 07:42:30;;;;;;;2.00;1.53;;;14.60;99.90;;;;;;5048794;28;20422;-7
2023/12/27 07:45:14;;;;;;;1.43;1.33;;;14.70;99.90;;;;;;5049612;28;20575;-7
2023/12/27 07:47:57;;;;;;;1.40;1.30;;;14.70;99.90;;;;;;5049628;28;20650;-7
2023/12/27 07:50:33;;;;;;;1.73;1.30;;;14.80;99.90;;;;;;5032465;28;20180;-7
2023/12/27 07:53:01;;;;;;;1.30;1.20;;;14.80;99.90;;;;;;5050008;28;20571;-7
2023/12/27 07:55:28;;;;;;;2.27;1.43;;;14.80;99.90;;;;;;5047736;28;20174;-7
2023/12/27 07:57:54;;;;;;;1.93;1.50;;;14.80;99.90;;;;;;5047735;28;20168;-7
2023/12/27 08:00:23;;;;;;;1.57;1.20;;;14.70;99.90;;;;;;5048495;28;20176;-8
2023/12/27 08:06:06;;;;;;;1.50;1.20;;;14.70;99.90;;;;;;5048442;28;20245;-7
2023/12/27 08:08:56;;;;;;;1.43;1.20;;;14.70;99.90;;;;;;5030871;28;20710;-7
2023/12/27 08:11:25;;;;;;;1.50;1.23;;;14.70;99.90;;;;;;5035447;28;20170;-7
2023/12/27 08:14:03;;;;;;;1.63;1.33;;;14.70;99.90;;;;;;5052953;28;20236;-8
2023/12/27 08:16:32;;;;;;;1.73;1.30;;;14.70;99.90;;;;;;5053054;28;20416;-7
2023/12/27 08:18:58;;;;;;;2.07;1.27;;;14.60;99.90;;;;;;5054363;28;20174;-7
2023/12/27 08:21:32;;;;;;;1.90;1.37;;;14.70;99.90;;;;;;5054005;28;20179;-7
2023/12/27 08:24:13;;;;;;;1.67;1.40;;;14.70;99.90;;;;;;5053961;28;20177;-7
2023/12/27 08:26:42;;;;;;;2.03;1.30;;;14.60;99.90;;;;;;5052364;28;20207;-7
2023/12/27 08:29:33;;;;;;;2.17;1.30;;;14.60;99.90;;;;;;5035723;28;20661;-7
2023/12/27 08:32:00;;;;;;;1.70;1.37;;;14.60;99.90;;;;;;5054144;28;20176;-8
2023/12/27 08:34:40;;;;;;;1.43;1.33;;;14.50;99.90;;;;;;5054507;28;20168;-9
2023/12/27 08:37:06;;;;;;;1.40;1.30;;;14.60;99.90;;;;;;5035815;28;20168;-7
2023/12/27 08:39:44;;;;;;;1.90;1.20;;;14.50;99.90;;;;;;5054181;28;20178;-7
2023/12/27 08:42:12;;;;;;;1.57;1.20;;;14.50;99.90;;;;;;5034192;28;20184;-7
2023/12/27 08:44:41;;;;;;;1.90;1.30;;;14.50;99.90;;;;;;5052479;28;20318;-7
2023/12/27 08:47:16;;;;;;;2.63;1.50;;;14.60;99.90;;;;;;5053262;28;20186;-7
2023/12/27 08:50:17;;;;;;;3.67;1.40;;;14.50;99.90;;;;;;5051328;28;20302;-8
2023/12/27 08:52:43;;;;;;;3.33;1.43;;;14.60;99.90;;;;;;4990342;28;20500;-7
2023/12/27 08:55:19;;;;;;;2.17;1.53;;;14.60;99.90;;;;;;4987881;28;20184;-7
2023/12/27 08:57:47;;;;;;;2.30;1.20;;;14.60;99.90;;;;;;4971829;28;20185;-7
2023/12/27 09:00:26;;;;;;;1.40;1.30;;;14.70;99.90;;;;;;4973128;28;20332;-7
2023/12/27 09:03:06;;;;;;;1.67;1.33;;;14.80;99.90;;;;;;4972251;28;20198;-7
2023/12/27 09:05:40;;;;;;;3.03;2.03;;;14.80;99.90;;;;;;4988310;28;20391;-7
2023/12/27 09:08:09;;;;;;;1.30;1.17;;;14.80;99.90;;;;;;4972396;28;20185;-7
2023/12/27 09:10:50;;;;;;;3.50;1.43;;;14.80;99.90;;;;;;4972078;28;20495;-8
2023/12/27 09:13:16;;;;;;;1.97;1.33;;;14.90;99.90;;;;;;4988756;28;20186;-7
2023/12/27 09:15:48;;;;;;;2.03;1.37;;;14.90;99.90;;;;;;4989042;28;20184;-7
2023/12/27 09:18:28;;;;;;;2.37;1.40;;;14.90;99.90;;;;;;4988848;28;20223;-8
2023/12/27 09:20:57;;;;;;;2.53;1.40;;;14.80;99.90;;;;;;4987609;28;20396;-7
2023/12/27 09:23:25;;;;;;;5.50;1.53;;;14.90;99.90;;;;;;5013950;28;20196;-7
2023/12/27 09:25:54;;;;;;;2.27;1.37;;;14.90;99.90;;;;;;5034130;28;20276;-8
2023/12/27 09:28:27;;;;;;;1.37;1.27;;;14.90;99.90;;;;;;5033434;28;20809;-8
2023/12/27 09:30:55;;;;;;;2.53;1.13;;;14.90;99.90;;;;;;5030888;28;20411;-8
2023/12/27 09:33:24;;;;;;;3.47;1.53;;;14.90;99.90;;;;;;5033688;28;20184;-7
2023/12/27 09:36:05;;;;;;;4.40;1.50;;;14.90;99.90;;;;;;5052862;28;20181;-7
2023/12/27 09:38:44;;;;;;;3.40;1.40;;;14.90;99.90;;;;;;5032971;28;20282;-7
2023/12/27 09:41:31;;;;;;;4.10;1.60;;;14.90;99.90;;;;;;5034314;28;20533;-8
2023/12/27 09:44:02;;;;;;;3.33;1.60;;;14.90;99.90;;;;;;5050905;28;20192;-7
2023/12/27 09:50:00;;;;;;;9.23;1.60;;;15.10;99.90;;;;;;5051368;28;20646;-7
2023/12/27 09:52:41;;;;;;;4.97;1.73;;;15.30;99.90;;;;;;5033551;28;20178;-8
2023/12/27 09:55:13;;;;;;;6.80;1.80;;;15.20;99.90;;;;;;5049070;28;20672;-7
2023/12/27 09:57:51;;;;;;;4.00;1.50;;;15.20;99.90;;;;;;5032913;28;20210;-7
2023/12/27 10:00:18;;;;;;;5.10;1.50;;;15.10;99.90;;;;;;5032195;28;20210;-7
2023/12/27 10:03:01;;;;;;;6.63;2.00;;;15.10;99.90;;;;;;5030857;28;20466;-7
2023/12/27 10:05:41;;;;;;;9.23;2.13;;;15.00;99.90;;;;;;5031632;28;20188;-7
2023/12/27 10:08:08;;;;;;;5.37;1.80;;;15.00;99.90;;;;;;5049446;28;20200;-7
2023/12/27 10:10:42;;;;;;;5.10;1.57;;;15.00;99.90;;;;;;5030294;28;20171;-8
2023/12/27 10:13:26;;;;;;;9.70;1.90;;;15.00;99.90;;;;;;5033451;28;20417;-8
2023/12/27 10:15:52;;;;;;;5.83;2.73;;;15.00;99.90;;;;;;5050328;28;20260;-7
2023/12/27 10:18:20;;;;;;;4.27;3.53;;;15.00;99.90;;;;;;5032319;28;20483;-7
2023/12/27 10:20:54;;;;;;;6.07;3.00;;;15.00;99.90;;;;;;5049000;28;20279;-7
2023/12/27 10:23:44;;;;;;;6.43;2.63;;;15.00;99.90;;;;;;5029875;28;20241;-7
2023/12/27 10:26:19;;;;;;;5.47;2.10;;;15.10;99.90;;;;;;5050340;28;20183;-7
2023/12/27 10:28:54;;;;;;;5.83;2.03;;;15.10;99.90;;;;;;5050509;28;20477;-7
2023/12/27 10:31:35;;;;;;;5.17;1.67;;;15.20;99.90;;;;;;5050622;28;20296;-7
2023/12/27 10:34:19;;;;;;;4.87;1.77;;;15.20;99.90;;;;;;5033844;28;20292;-7
2023/12/27 10:36:47;;;;;;;2.30;1.50;;;15.20;99.90;;;;;;5033776;28;20403;-7
2023/12/27 10:42:28;;;;;;;2.87;1.50;;;15.20;99.90;;;;;;5052774;28;20194;-7
2023/12/27 10:44:53;;;;;;;5.47;1.87;;;15.20;99.90;;;;;;5028592;28;20197;-7
2023/12/27 10:47:20;;;;;;;3.27;1.60;;;15.20;99.90;;;;;;5053653;28;20183;-8
2023/12/27 10:49:54;;;;;;;5.67;1.63;;;15.20;99.90;;;;;;5055823;28;20572;-7
2023/12/27 10:52:25;;;;;;;3.97;1.60;;;15.20;99.90;;;;;;5056388;28;20173;-7
2023/12/27 10:55:26;;;;;;;2.10;1.50;;;15.30;99.90;;;;;;5055699;28;20171;-7
2023/12/27 10:57:58;;;;;;;4.40;1.40;;;15.30;99.90;;;;;;5056278;28;20152;-7
2023/12/27 11:00:42;;;;;;;3.37;1.30;;;15.30;99.90;;;;;;5055741;28;20266;-8
2023/12/27 11:03:30;;;;;;;4.20;1.10;;;15.30;99.90;;;;;;5037920;28;20203;-8
2023/12/27 11:09:07;;;;;;;2.70;1.30;;;15.30;99.90;;;;;;5056371;28;20297;-7
2023/12/27 11:11:40;;;;;;;2.70;1.10;;;15.30;99.90;;;;;;5055999;28;20691;-7
2023/12/27 11:14:14;;;;;;;3.13;1.23;;;15.30;99.90;;;;;;5034867;28;20179;-7
2023/12/27 11:16:54;;;;;;;4.73;1.30;;;15.30;99.90;;;;;;5022643;28;20466;-7
2023/12/27 11:19:26;;;;;;;4.27;1.40;;;15.30;99.90;;;;;;5055263;28;20175;-8
2023/12/27 11:21:54;;;;;;;4.87;1.10;;;15.30;99.90;;;;;;5036827;28;20267;-8
2023/12/27 11:24:23;;;;;;;6.53;1.40;;;15.30;99.90;;;;;;5037573;28;20170;-9
2023/12/27 11:27:04;;;;;;;4.03;1.20;;;15.30;99.90;;;;;;5038218;28;20185;-8
2023/12/27 11:32:31;;;;;;;10.67;1.43;;;15.40;99.90;;;;;;5055192;28;20205;-7
2023/12/27 11:35:09;;;;;;;7.73;1.60;;;15.40;99.90;;;;;;5056123;28;20177;-7
2023/12/27 11:37:52;;;;;;;4.90;1.30;;;15.40;99.90;;;;;;5035672;28;20246;-8
2023/12/27 11:40:40;;;;;;;6.37;1.40;;;15.40;99.90;;;;;;5037124;28;20743;-8
2023/12/27 11:43:21;;;;;;;1.70;1.20;;;15.40;99.90;;;;;;5050722;28;20176;-7
2023/12/27 11:46:13;;;;;;;3.03;1.20;;;15.40;99.90;;;;;;5049594;28;20166;-7
2023/12/27 11:49:08;;;;;;;3.03;1.10;;;15.30;99.90;;;;;;5051239;28;20261;-7
2023/12/27 11:51:42;;;;;;;4.03;1.17;;;15.30;99.90;;;;;;4978537;28;20576;-8
2023/12/27 11:54:36;;;;;;;3.80;1.37;;;15.30;99.90;;;;;;5050818;28;20222;-7
2023/12/27 11:57:04;;;;;;;2.63;1.27;;;15.30;99.90;;;;;;5051866;28;20168;-7
2023/12/27 11:59:33;;;;;;;3.97;1.30;;;15.30;99.90;;;;;;5050291;28;20177;-7
2023/12/27 12:02:24;;;;;;;4.10;1.10;;;15.30;99.90;;;;;;5051260;28;20179;-7
2023/12/27 12:05:14;;;;;;;4.70;1.20;;;15.30;99.90;;;;;;5032483;28;20185;-7
2023/12/27 12:08:08;;;;;;;2.70;1.20;;;15.30;99.90;;;;;;5049365;28;20173;-7
2023/12/27 12:11:10;;;;;;;1.67;1.10;;;15.30;99.90;;;;;;5047831;28;20185;-8
2023/12/27 12:13:45;;;;;;;6.00;1.20;;;15.30;99.90;;;;;;5048484;28;20205;-7
2023/12/27 12:16:14;;;;;;;3.50;1.20;;;15.30;99.90;;;;;;5049377;28;20182;-7
2023/12/27 12:18:40;;;;;;;2.67;1.10;;;15.30;99.90;;;;;;5031435;28;20183;-8
2023/12/27 12:21:07;;;;;;;2.43;1.10;;;15.30;99.90;;;;;;5049002;28;20246;-7
2023/12/27 12:23:50;;;;;;;3.20;1.13;;;15.30;99.90;;;;;;5047764;28;20263;-7
2023/12/27 12:26:27;;;;;;;1.50;1.10;;;15.30;99.90;;;;;;5032531;28;20175;-7
2023/12/27 12:29:18;;;;;;;4.10;0.90;;;15.30;99.90;;;;;;5050991;28;20281;-8
2023/12/27 12:31:48;;;;;;;3.73;1.13;;;15.30;99.90;;;;;;5051786;28;20179;-7
2023/12/27 12:34:22;;;;;;;4.57;1.03;;;15.30;99.90;;;;;;5051582;28;20174;-7
2023/12/27 12:36:58;;;;;;;2.47;1.10;;;15.30;99.90;;;;;;5026439;28;20272;-7
2023/12/27 12:39:30;;;;;;;4.67;1.37;;;15.30;99.90;;;;;;5029804;28;20620;-5
2023/12/27 12:42:08;;;;;;;3.10;1.13;;;15.30;99.90;;;;;;5047534;28;20227;-4
2023/12/27 12:44:43;;;;;;;2.00;1.20;;;15.30;99.90;;;;;;5046385;28;20324;-5
2023/12/27 12:47:36;;;;;;;1.87;0.90;;;15.30;99.90;;;;;;5029691;28;20534;-5
2023/12/27 12:50:02;;;;;;;7.10;1.20;;;15.30;99.90;;;;;;5030896;28;20572;-5
2023/12/27 12:52:36;;;;;;;1.93;1.00;;;15.30;99.90;;;;;;5049178;28;20253;-5
2023/12/27 12:55:28;;;;;;;2.93;1.20;;;15.30;99.90;;;;;;5030400;28;20554;-5
2023/12/27 12:58:14;;;;;;;2.50;1.13;;;15.40;99.90;;;;;;5031495;28;20184;-5
2023/12/27 13:00:40;;;;;;;3.37;1.20;;;15.40;99.90;;;;;;5031659;28;20183;-5
2023/12/27 13:03:12;;;;;;;1.80;1.00;;;15.40;99.90;;;;;;5030197;28;20199;-5
2023/12/27 13:05:44;;;;;;;4.30;0.90;;;15.40;99.90;;;;;;5050571;28;20167;-5
2023/12/27 13:08:17;;;;;;;1.73;1.00;;;15.40;99.90;;;;;;5049940;28;20177;-5
2023/12/27 13:10:52;;;;;;;1.93;1.00;;;15.40;99.90;;;;;;5034005;28;20216;-5
2023/12/27 13:13:30;;;;;;;1.53;0.90;;;15.50;99.90;;;;;;5031677;28;20170;-5
2023/12/27 13:15:59;;;;;;;2.33;1.10;;;15.50;99.90;;;;;;5031241;28;20172;-5
2023/12/27 13:18:26;;;;;;;5.00;1.47;;;15.50;99.90;;;;;;5031225;28;20286;-4
2023/12/27 13:20:52;;;;;;;4.60;1.30;;;15.40;99.90;;;;;;5049897;28;20416;-5
2023/12/27 13:23:44;;;;;;;2.87;1.00;;;15.40;99.90;;;;;;5048774;28;20194;-5
2023/12/27 13:26:35;;;;;;;1.13;1.03;;;15.40;99.90;;;;;;5020191;28;20180;-5
2023/12/27 13:29:06;;;;;;;1.37;0.97;;;15.40;99.90;;;;;;5031326;28;20634;-5
2023/12/27 13:31:32;;;;;;;5.67;1.13;;;15.40;99.90;;;;;;5048548;28;20179;-5
2023/12/27 13:34:10;;;;;;;3.37;1.20;;;15.30;99.90;;;;;;5029973;28;20170;-5
2023/12/27 13:36:38;;;;;;;4.63;1.27;;;15.30;99.90;;;;;;5029353;28;20426;-4
2023/12/27 13:39:05;;;;;;;2.23;1.37;;;15.30;99.90;;;;;;5048204;28;20575;-5
2023/12/27 13:41:30;;;;;;;2.63;1.40;;;15.30;99.90;;;;;;5048551;28;20577;-5
2023/12/27 13:44:08;;;;;;;5.13;1.47;;;15.30;99.90;;;;;;5047964;28;20175;-5
2023/12/27 13:46:37;;;;;;;5.50;1.60;;;15.30;99.90;;;;;;5030932;28;20187;-5
2023/12/27 13:49:09;;;;;;;3.30;1.60;;;15.30;99.90;;;;;;5029133;28;20227;-5
2023/12/27 13:51:37;;;;;;;3.90;1.90;;;15.30;99.90;;;;;;5048829;28;20165;-4
2023/12/27 13:54:09;;;;;;;6.40;2.00;;;15.30;99.90;;;;;;5048446;28;20179;-4
2023/12/27 13:56:42;;;;;;;5.43;1.80;;;15.30;99.90;;;;;;5031145;28;20465;-5
2023/12/27 13:59:43;;;;;;;3.70;1.87;;;15.30;99.90;;;;;;5049497;28;20177;-5
2023/12/27 14:02:49;;;;;;;3.00;1.60;;;15.30;99.90;;;;;;4984554;28;20327;-5
2023/12/27 14:05:19;;;;;;;3.97;1.43;;;15.30;99.90;;;;;;5047959;28;20188;-5
2023/12/27 14:08:00;;;;;;;4.20;1.67;;;15.30;99.90;;;;;;5032000;28;20322;-5
2023/12/27 14:10:42;;;;;;;3.13;1.53;;;15.30;99.90;;;;;;5048716;28;20464;-5
2023/12/27 14:13:28;;;;;;;4.20;1.50;;;15.30;99.90;;;;;;5031144;28;20241;-5
2023/12/27 14:15:57;;;;;;;2.67;1.43;;;15.30;99.90;;;;;;5049167;28;20179;-5
2023/12/27 14:18:22;;;;;;;2.53;1.33;;;15.30;99.90;;;;;;5049838;28;20440;-5
2023/12/27 14:20:48;;;;;;;2.13;1.50;;;15.30;99.90;;;;;;5048519;28;20563;-5
2023/12/27 14:23:37;;;;;;;3.97;1.70;;;15.30;99.90;;;;;;5032253;28;20178;-5
2023/12/27 14:26:27;;;;;;;2.20;1.50;;;15.30;99.90;;;;;;5014477;28;20183;-5
2023/12/27 14:28:56;;;;;;;3.50;1.43;;;15.30;99.90;;;;;;5050523;28;20517;-5
2023/12/27 14:31:26;;;;;;;5.20;1.60;;;15.30;99.90;;;;;;5031970;28;20592;-5
2023/12/27 14:33:58;;;;;;;2.50;1.40;;;15.30;99.90;;;;;;5030883;28;20273;-5
2023/12/27 14:36:24;;;;;;;3.37;1.50;;;15.20;99.90;;;;;;5028547;28;20518;-5
2023/12/27 14:39:02;;;;;;;2.10;1.30;;;15.30;99.90;;;;;;5048597;28;20618;-5
2023/12/27 14:41:27;;;;;;;5.77;1.30;;;15.20;99.90;;;;;;5028449;28;20194;-4
2023/12/27 14:43:56;;;;;;;3.47;1.30;;;15.20;99.90;;;;;;5049554;28;20178;-5
2023/12/27 14:46:31;;;;;;;3.53;1.23;;;15.20;99.90;;;;;;5032149;28;20200;-5
2023/12/27 14:48:57;;;;;;;1.93;1.10;;;15.20;99.90;;;;;;5030732;28;20206;-4